Airfield :
LOGIN :

Register | Disclaimer

   EN    FR    IT 

 










Legend :    VFR   Marginal VFR   IFR   Intensive IFR   Very Intensive IFR
Visi :
Ceiling :
>= 8 km
>= 3000ft
5 to 8 km
1000 to 3000 ft
1500m to 5 km
500 to 1000 ft
800 to 1500m
200 to 500 ft
< 800m
< 200 ft
Symbols :   Thunderstorms  Fog  Heavy snow  Heavy precipitations  Wind > 20 kt
SIGMETs :     Misc.  Thunderstorms  Icing  Turbulence  Mountain Waves  Volcanic Ashes






- Airport Elevation : 602 ft
- IATA code : NVS


LFQG - Nevers

CURRENT METAR :
  • 211330Z AUTO 33007KT 290V030 9999 FEW044 SCT052 BKN074 10/02 Q1021

EXPIRED METARs :
  • 211300Z AUTO 34010KT 9999 FEW035 SCT043 BKN049 08/02 Q1022
  • 211230Z AUTO 36011KT 330V040 9999 SCT046 SCT052 OVC076 10/00 Q1022
  • 211200Z AUTO 36012KT 340V040 CAVOK 10/M00 Q1022
  • 211130Z AUTO 36010KT 9999 FEW044 BKN056 BKN072 09/00 Q1022
  • 211100Z AUTO 36012KT 320V040 9999 FEW040 BKN060 BKN074 08/M00 Q1022
  • 211030Z AUTO 34011KT 310V010 9999 FEW032 SCT056 BKN066 10/02 Q1023
  • 211000Z AUTO 35010KT 310V040 9999 FEW026 BKN033 BKN042 08/02 Q1023
  • 210930Z AUTO 35007KT 310V040 9999 SCT024 BKN031 BKN038 08/02 Q1023
  • 210900Z AUTO 33010KT 9999 SCT018 BKN024 BKN031 07/02 Q1023

TAF N/A



MET'MAP, your aeronautical weather chart ! - Copyright ORBIFLY December 2007 - Disclaimer

ORBIFLY MET'MAP TEAM :

Programming & Development : Alexandra Zaïnal
Original concept : Baudouin d'Aumeries
Technical & hardware support : Manuel Goepfert
Assistance : Marc-Olivier Méhu




SOURCES & CREDITS :

   NOAA